Time;durP1;ratioP1;P1;durP2;ratioP2;P2;SDS_P1;SDS_P2;PMS_P1;PMS_P2;Temp;Humidity;BMP_temperature;BMP_pressure;BME280_temperature;BME280_humidity;BME280_pressure;Samples;Min_cycle;Max_cycle;Signal;HPM_P1;HPM_P2
2023/10/26 00:00:39;;;;;;;34.97;21.40;;;;;;;-149.70;100.00;75820.56;5013725;28;20086;-63
2023/10/26 00:03:08;;;;;;;30.05;21.80;;;;;;;-149.70;100.00;75822.59;5013013;28;20081;-63
2023/10/26 00:05:35;;;;;;;31.90;22.08;;;;;;;-149.70;100.00;75828.69;5014048;28;20061;-62
2023/10/26 00:08:03;;;;;;;37.80;22.23;;;;;;;-149.70;100.00;75808.38;5013096;28;20042;-62
2023/10/26 00:10:30;;;;;;;34.83;23.45;;;;;;;-149.70;100.00;75816.50;5014335;28;20082;-63
2023/10/26 00:12:56;;;;;;;34.40;24.63;;;;;;;-149.70;100.00;75814.47;5012972;28;20069;-62
2023/10/26 00:15:23;;;;;;;35.42;24.83;;;;;;;-149.70;100.00;75816.50;5009395;28;20046;-64
2023/10/26 00:17:49;;;;;;;37.90;24.25;;;;;;;-149.70;100.00;75816.50;5008609;28;20046;-62
2023/10/26 00:20:18;;;;;;;41.75;25.10;;;;;;;-149.70;100.00;75810.41;5009851;28;20042;-62
2023/10/26 00:22:45;;;;;;;40.45;27.10;;;;;;;-149.70;100.00;75810.41;5006742;28;20052;-62
2023/10/26 00:25:11;;;;;;;38.17;25.92;;;;;;;-149.70;100.00;75806.34;5008526;28;20097;-63
2023/10/26 00:27:40;;;;;;;38.00;25.70;;;;;;;-149.70;100.00;75812.44;5008280;28;20085;-62
2023/10/26 00:30:11;;;;;;;38.28;27.23;;;;;;;-149.70;100.00;75814.47;5007755;28;20129;-63
2023/10/26 00:32:38;;;;;;;42.33;27.88;;;;;;;-149.70;100.00;75810.41;5006447;28;20053;-63
2023/10/26 00:35:05;;;;;;;49.50;28.33;;;;;;;-149.70;100.00;75820.56;5007747;28;20065;-62
2023/10/26 00:37:32;;;;;;;41.72;27.10;;;;;;;-149.70;100.00;75816.50;5006512;28;20054;-62
2023/10/26 00:39:59;;;;;;;44.30;28.83;;;;;;;-149.70;100.00;75818.53;5007949;28;20050;-62
2023/10/26 00:42:26;;;;;;;46.95;28.77;;;;;;;-149.70;100.00;75816.50;5006163;28;20043;-62
2023/10/26 00:44:56;;;;;;;48.80;29.52;;;;;;;-149.70;100.00;75818.53;5004087;28;20058;-63
2023/10/26 00:47:24;;;;;;;46.80;30.23;;;;;;;-149.70;100.00;75808.38;5004311;28;20046;-64
2023/10/26 00:49:52;;;;;;;51.78;29.83;;;;;;;-149.70;100.00;75800.25;5004640;28;20046;-61
2023/10/26 00:52:19;;;;;;;46.25;30.48;;;;;;;-149.70;100.00;75796.19;5003741;28;20050;-61
2023/10/26 00:54:46;;;;;;;46.92;31.15;;;;;;;-149.70;100.00;75802.28;5022696;28;20048;-62
2023/10/26 00:57:16;;;;;;;49.58;31.05;;;;;;;-149.70;100.00;75806.34;5023547;28;20042;-61
2023/10/26 00:59:44;;;;;;;53.17;32.78;;;;;;;-149.70;100.00;75796.19;5024527;28;20053;-61
2023/10/26 01:02:13;;;;;;;51.88;34.50;;;;;;;-149.70;100.00;75794.13;5024523;28;20046;-62
2023/10/26 01:04:40;;;;;;;58.17;33.38;;;;;;;-149.70;100.00;75796.19;5022370;28;20104;-61
2023/10/26 01:07:07;;;;;;;52.33;33.63;;;;;;;-149.70;100.00;75802.28;5022845;28;20041;-61
2023/10/26 01:09:34;;;;;;;68.40;34.05;;;;;;;-149.70;100.00;75798.22;5023350;28;20085;-60
2023/10/26 01:12:01;;;;;;;53.15;34.53;;;;;;;-149.70;100.00;75792.09;5022587;28;20399;-61
2023/10/26 01:14:28;;;;;;;58.40;35.78;;;;;;;-149.70;100.00;75783.97;5022116;28;20117;-62
2023/10/26 01:16:55;;;;;;;63.97;36.15;;;;;;;-149.70;100.00;75792.09;5021934;28;20042;-61
2023/10/26 01:19:36;;;;;;;54.67;36.17;;;;;;;-149.70;100.00;75788.03;5023402;28;20053;-61
2023/10/26 01:22:03;;;;;;;61.03;37.28;;;;;;;-149.70;100.00;75788.03;5022885;28;20109;-61
2023/10/26 01:24:29;;;;;;;60.42;37.50;;;;;;;-149.70;100.00;75779.91;5024285;28;20141;-62
2023/10/26 01:26:56;;;;;;;65.45;37.67;;;;;;;-149.70;100.00;75777.88;5025985;28;20073;-61
2023/10/26 01:29:22;;;;;;;60.97;36.70;;;;;;;-149.70;100.00;75783.97;5025176;28;20073;-61
2023/10/26 01:31:49;;;;;;;64.32;38.75;;;;;;;-149.70;100.00;75775.84;5026497;28;20042;-61
2023/10/26 01:34:15;;;;;;;63.53;37.95;;;;;;;-149.70;100.00;75773.81;5026013;28;20069;-62
2023/10/26 01:36:42;;;;;;;62.88;35.53;;;;;;;-149.70;100.00;75773.81;5024331;28;20498;-61
2023/10/26 01:39:09;;;;;;;68.75;38.25;;;;;;;-149.70;100.00;75773.81;5015418;28;20494;-61
2023/10/26 01:41:35;;;;;;;61.50;38.83;;;;;;;-149.70;100.00;75773.81;5030264;28;20056;-61
2023/10/26 01:44:02;;;;;;;61.85;36.72;;;;;;;-149.70;100.00;75786.00;5024600;28;20045;-62
2023/10/26 01:46:29;;;;;;;64.75;37.80;;;;;;;-149.70;100.00;75775.84;5026090;28;20049;-62
2023/10/26 01:48:56;;;;;;;63.92;37.03;;;;;;;-149.70;100.00;75773.81;5027559;28;20057;-61
2023/10/26 01:51:23;;;;;;;65.60;37.60;;;;;;;-149.70;100.00;75771.78;5027038;28;20077;-62
2023/10/26 01:53:50;;;;;;;65.50;38.10;;;;;;;-149.70;100.00;75767.72;5014541;28;20046;-62
2023/10/26 01:56:17;;;;;;;65.65;39.28;;;;;;;-149.70;100.00;75757.53;5005954;28;20037;-62
2023/10/26 01:58:44;;;;;;;69.72;40.50;;;;;;;-149.70;100.00;75757.53;5007693;28;20081;-61
2023/10/26 02:01:11;;;;;;;71.80;40.17;;;;;;;-149.70;100.00;75757.53;5007699;28;20109;-61
2023/10/26 02:03:37;;;;;;;63.08;38.80;;;;;;;-149.70;100.00;75769.75;4999656;28;20046;-61
2023/10/26 02:09:51;;;;;;;74.28;40.33;;;;;;;-149.70;100.00;75757.53;5006982;28;20106;-61
2023/10/26 02:12:18;;;;;;;66.35;39.55;;;;;;;-149.70;100.00;75753.47;5006537;28;20046;-61
2023/10/26 02:14:44;;;;;;;65.38;38.47;;;;;;;-149.70;100.00;75753.47;5005646;28;20106;-61
2023/10/26 02:17:12;;;;;;;66.05;39.67;;;;;;;-149.70;100.00;75751.44;4998530;28;20042;-61
2023/10/26 02:19:39;;;;;;;73.38;40.95;;;;;;;-149.70;100.00;75739.25;4994043;28;20057;-61
2023/10/26 02:22:06;;;;;;;70.57;40.60;;;;;;;-149.70;100.00;75751.44;4997034;28;20125;-61
2023/10/26 02:24:32;;;;;;;76.57;41.72;;;;;;;-149.70;100.00;75747.38;4995081;28;20406;-61
2023/10/26 02:26:59;;;;;;;76.78;41.13;;;;;;;-149.70;100.00;75739.25;4993679;28;20074;-61
2023/10/26 02:29:25;;;;;;;71.50;40.58;;;;;;;-149.70;100.00;75737.22;5003492;28;20071;-62
2023/10/26 02:31:53;;;;;;;75.63;41.67;;;;;;;-149.70;100.00;75739.25;5004840;28;20046;-61
2023/10/26 02:34:19;;;;;;;77.32;42.65;;;;;;;-149.70;100.00;75739.25;5005093;28;20055;-63
2023/10/26 02:36:46;;;;;;;72.60;40.13;;;;;;;-149.70;100.00;75739.25;5005684;28;20102;-61
2023/10/26 02:39:12;;;;;;;70.25;40.60;;;;;;;-149.70;100.00;75739.25;4993653;28;20109;-61
2023/10/26 02:41:39;;;;;;;71.68;40.40;;;;;;;-149.70;100.00;75739.25;4995959;28;20053;-62
2023/10/26 02:44:05;;;;;;;77.90;39.80;;;;;;;-149.70;100.00;75739.25;5005848;28;20053;-62
2023/10/26 02:46:32;;;;;;;73.68;40.95;;;;;;;-149.70;100.00;75733.16;4996262;28;20069;-61
2023/10/26 02:48:58;;;;;;;79.40;41.63;;;;;;;-149.70;100.00;75731.13;4979760;28;20115;-61
2023/10/26 02:51:25;;;;;;;72.13;40.80;;;;;;;-149.70;100.00;75727.06;5002316;28;20042;-62
2023/10/26 02:53:51;;;;;;;79.20;42.40;;;;;;;-149.70;100.00;75731.13;5018616;28;20132;-61
2023/10/26 02:56:19;;;;;;;71.55;39.08;;;;;;;-149.70;100.00;75727.06;5029135;28;20233;-62
2023/10/26 02:58:45;;;;;;;76.82;42.15;;;;;;;-149.70;100.00;75731.13;5028189;28;20045;-61
2023/10/26 03:01:12;;;;;;;70.10;40.47;;;;;;;-149.70;100.00;75718.91;5029640;28;20100;-62
2023/10/26 03:03:38;;;;;;;74.20;41.30;;;;;;;-149.70;100.00;75718.91;5028453;28;20058;-62
2023/10/26 03:06:05;;;;;;;81.57;42.47;;;;;;;-149.70;100.00;75698.59;5030288;28;20056;-63
2023/10/26 03:08:32;;;;;;;79.40;43.00;;;;;;;-149.70;100.00;75718.91;5028687;28;20042;-62
2023/10/26 03:10:58;;;;;;;75.35;41.83;;;;;;;-149.70;100.00;75710.78;5028449;28;20076;-62
2023/10/26 03:13:25;;;;;;;85.30;44.30;;;;;;;-149.70;100.00;75714.84;5019654;28;20092;-62
2023/10/26 03:15:51;;;;;;;76.97;41.45;;;;;;;-149.70;100.00;75716.88;5024532;28;20429;-62
2023/10/26 03:18:18;;;;;;;80.95;42.50;;;;;;;-149.70;100.00;75702.66;5019423;28;20088;-61
2023/10/26 03:20:44;;;;;;;83.30;43.50;;;;;;;-149.70;100.00;75712.81;5018874;28;20046;-61
2023/10/26 03:23:11;;;;;;;81.13;43.47;;;;;;;-149.70;100.00;75706.72;5027333;28;20042;-62
2023/10/26 03:25:38;;;;;;;84.18;43.95;;;;;;;-149.70;100.00;75702.66;5027259;28;20042;-62
2023/10/26 03:28:05;;;;;;;92.68;43.95;;;;;;;-149.70;100.00;75702.66;5027826;28;20046;-61
2023/10/26 03:30:31;;;;;;;93.88;45.22;;;;;;;-149.70;100.00;75702.66;5027022;28;20046;-62
2023/10/26 03:32:58;;;;;;;95.82;45.17;;;;;;;-149.70;100.00;75710.78;5026880;28;20050;-62
2023/10/26 03:35:25;;;;;;;100.68;46.72;;;;;;;-149.70;100.00;75698.59;5026458;28;20054;-61
2023/10/26 03:37:54;;;;;;;107.00;48.60;;;;;;;-149.70;100.00;75690.47;5027220;28;20042;-61
2023/10/26 03:40:20;;;;;;;97.07;46.50;;;;;;;-149.70;100.00;75692.50;5026392;28;20049;-62
2023/10/26 03:42:47;;;;;;;85.63;43.95;;;;;;;-149.70;100.00;75710.78;5027069;28;20038;-61
2023/10/26 03:45:14;;;;;;;88.22;43.83;;;;;;;-149.70;100.00;75708.75;5026079;28;20072;-61
2023/10/26 03:47:41;;;;;;;99.38;44.75;;;;;;;-149.70;100.00;75710.78;5026694;28;20046;-62
2023/10/26 03:50:08;;;;;;;96.82;45.65;;;;;;;-149.70;100.00;75708.75;5025684;28;20053;-63
2023/10/26 03:52:35;;;;;;;98.50;45.75;;;;;;;-149.70;100.00;75690.47;5027320;28;20574;-62
2023/10/26 03:55:02;;;;;;;97.68;45.60;;;;;;;-149.70;100.00;75700.63;5007360;28;20026;-61
2023/10/26 03:57:29;;;;;;;92.25;46.17;;;;;;;-149.70;100.00;75694.53;5007851;28;20054;-62
2023/10/26 03:59:55;;;;;;;105.32;47.58;;;;;;;-149.70;100.00;75686.41;5007564;28;20057;-61
2023/10/26 04:02:22;;;;;;;96.80;46.60;;;;;;;-149.70;100.00;75694.53;5008165;28;20030;-62
2023/10/26 04:04:50;;;;;;;93.38;44.58;;;;;;;-149.70;100.00;75698.59;5007415;28;20046;-61
2023/10/26 04:07:18;;;;;;;101.25;44.65;;;;;;;-149.70;100.00;75686.41;5007370;28;20106;-61
2023/10/26 04:09:45;;;;;;;94.13;44.42;;;;;;;-149.70;100.00;75684.38;5007464;28;20050;-61
2023/10/26 04:12:12;;;;;;;90.72;44.42;;;;;;;-149.70;100.00;75688.44;5007007;28;20047;-61
2023/10/26 04:14:38;;;;;;;95.72;42.58;;;;;;;-149.70;100.00;75696.56;5005699;28;20129;-62
2023/10/26 04:17:05;;;;;;;89.05;43.00;;;;;;;-149.70;100.00;75692.50;5007719;28;20046;-61
2023/10/26 04:19:33;;;;;;;93.43;42.22;;;;;;;-149.70;100.00;75686.41;5006667;28;20101;-61
2023/10/26 04:22:00;;;;;;;93.93;42.85;;;;;;;-149.70;100.00;75694.53;5007416;28;20046;-62
2023/10/26 04:24:27;;;;;;;92.38;41.33;;;;;;;-149.70;100.00;75686.41;5008417;28;20053;-61
2023/10/26 04:26:53;;;;;;;92.65;41.97;;;;;;;-149.70;100.00;75688.44;5008357;28;20046;-60
2023/10/26 04:29:20;;;;;;;89.97;41.25;;;;;;;-149.70;100.00;75694.53;4990298;28;20046;-61
2023/10/26 04:31:47;;;;;;;81.38;38.83;;;;;;;-149.70;100.00;75684.38;5007420;28;20491;-61
2023/10/26 04:34:15;;;;;;;89.07;40.90;;;;;;;-149.70;100.00;75690.47;5007733;28;20046;-61
2023/10/26 04:36:41;;;;;;;75.80;35.45;;;;;;;-149.70;100.00;75684.38;5007531;28;20050;-62
2023/10/26 04:39:09;;;;;;;70.40;35.08;;;;;;;-149.70;100.00;75678.25;5007203;28;20042;-64
2023/10/26 04:41:36;;;;;;;74.38;35.90;;;;;;;-149.70;100.00;75690.47;5007917;28;20485;-62
2023/10/26 04:44:05;;;;;;;68.35;32.65;;;;;;;-149.70;100.00;75690.47;5006521;28;20046;-63
2023/10/26 04:46:31;;;;;;;74.18;35.90;;;;;;;-149.70;100.00;75684.38;5007124;28;20042;-60
2023/10/26 04:48:58;;;;;;;72.85;35.00;;;;;;;-149.70;100.00;75680.28;5007402;28;20096;-62
2023/10/26 04:51:24;;;;;;;72.88;34.95;;;;;;;-149.70;100.00;75676.22;5005907;28;20050;-62
2023/10/26 04:53:51;;;;;;;72.78;35.47;;;;;;;-149.70;100.00;75670.13;5016390;28;20081;-61
2023/10/26 04:56:19;;;;;;;83.97;37.58;;;;;;;-149.70;100.00;75666.06;5024871;28;20046;-62
2023/10/26 04:58:48;;;;;;;70.78;35.95;;;;;;;-149.70;100.00;75670.13;5025463;28;20431;-61
2023/10/26 05:01:14;;;;;;;76.97;36.55;;;;;;;-149.70;100.00;75672.16;5026192;28;20041;-61
2023/10/26 05:03:41;;;;;;;81.50;38.53;;;;;;;-149.70;100.00;75666.06;5026551;28;20060;-61
2023/10/26 05:06:08;;;;;;;79.05;37.58;;;;;;;-149.70;100.00;75657.94;5026912;28;20042;-63
2023/10/26 05:08:35;;;;;;;75.28;35.08;;;;;;;-149.70;100.00;75662.00;5009981;28;20105;-62
2023/10/26 05:11:01;;;;;;;79.75;37.28;;;;;;;-149.70;100.00;75666.06;5025548;28;20049;-62
2023/10/26 05:13:29;;;;;;;81.82;37.85;;;;;;;-149.70;100.00;75653.88;5025430;28;20065;-62
2023/10/26 05:15:55;;;;;;;77.68;36.60;;;;;;;-149.70;100.00;75653.88;5023507;28;20124;-61
2023/10/26 05:18:22;;;;;;;75.55;36.30;;;;;;;-149.70;100.00;75657.94;5025970;28;20124;-62
2023/10/26 05:20:50;;;;;;;80.70;36.90;;;;;;;-149.70;100.00;75653.88;5025073;28;20068;-61
2023/10/26 05:23:17;;;;;;;79.72;35.92;;;;;;;-149.70;100.00;75653.88;5023830;28;20601;-61
2023/10/26 05:25:43;;;;;;;80.00;36.72;;;;;;;-149.70;100.00;75649.81;5024332;28;20077;-61
2023/10/26 05:28:10;;;;;;;79.95;39.15;;;;;;;-149.70;100.00;75649.81;5023678;28;20096;-62
2023/10/26 05:30:36;;;;;;;75.68;37.13;;;;;;;-149.70;100.00;75655.91;5023467;28;20049;-62
2023/10/26 05:33:03;;;;;;;78.78;36.55;;;;;;;-149.70;100.00;75657.94;5023451;28;20049;-62
2023/10/26 05:35:30;;;;;;;80.20;36.58;;;;;;;-149.70;100.00;75657.94;5025463;28;20053;-61
2023/10/26 05:37:56;;;;;;;76.13;34.95;;;;;;;-149.70;100.00;75649.81;5022508;28;20045;-61
2023/10/26 05:40:23;;;;;;;80.43;38.80;;;;;;;-149.70;100.00;75649.81;5021977;28;20049;-62
2023/10/26 05:42:49;;;;;;;77.22;37.95;;;;;;;-149.70;100.00;75653.88;5022637;28;20049;-62
2023/10/26 05:45:16;;;;;;;83.07;38.05;;;;;;;-149.70;100.00;75651.84;5022096;28;20068;-62
2023/10/26 05:47:43;;;;;;;79.57;38.65;;;;;;;-149.70;100.00;75653.88;5023513;28;20097;-62
2023/10/26 05:50:10;;;;;;;78.28;36.65;;;;;;;-149.70;100.00;75657.94;5023265;28;20042;-63
2023/10/26 05:52:38;;;;;;;82.05;36.67;;;;;;;-149.70;100.00;75655.91;5020566;28;20111;-64
2023/10/26 05:55:05;;;;;;;74.75;35.60;;;;;;;-149.70;100.00;75649.81;5003336;28;20053;-61
2023/10/26 05:57:31;;;;;;;79.90;37.08;;;;;;;-149.70;100.00;75641.66;5002318;28;20074;-61
2023/10/26 05:59:58;;;;;;;89.50;37.60;;;;;;;-149.70;100.00;75647.78;4982999;28;20435;-62
2023/10/26 06:02:25;;;;;;;90.60;37.50;;;;;;;-149.70;100.00;75649.81;4999667;28;20081;-62
2023/10/26 06:04:52;;;;;;;84.22;37.05;;;;;;;-149.70;100.00;75645.72;4990264;28;20065;-62
2023/10/26 06:07:19;;;;;;;74.22;35.92;;;;;;;-149.70;100.00;75649.81;5005072;28;20042;-63
2023/10/26 06:09:45;;;;;;;75.93;34.90;;;;;;;-149.70;100.00;75657.94;5008443;28;20050;-64
2023/10/26 06:12:12;;;;;;;78.85;37.40;;;;;;;-149.70;100.00;75653.88;5024983;28;20032;-63
2023/10/26 06:14:39;;;;;;;74.07;36.65;;;;;;;-149.70;100.00;75655.91;5026461;28;20041;-63
2023/10/26 06:17:05;;;;;;;84.07;38.08;;;;;;;-149.70;100.00;75657.94;5027304;28;20041;-62
2023/10/26 06:19:33;;;;;;;78.82;38.17;;;;;;;-149.70;100.00;75666.06;5026992;28;20049;-62
2023/10/26 06:22:00;;;;;;;78.85;37.58;;;;;;;-149.70;100.00;75657.94;5029147;28;20050;-62
2023/10/26 06:24:27;;;;;;;79.30;35.90;;;;;;;-149.70;100.00;75653.88;5030825;28;20485;-62
2023/10/26 06:26:54;;;;;;;75.53;35.45;;;;;;;-149.70;100.00;75668.09;5030349;28;20053;-62
2023/10/26 06:29:20;;;;;;;77.80;36.92;;;;;;;-149.70;100.00;75662.00;5030122;28;20057;-62
2023/10/26 06:31:47;;;;;;;81.00;37.10;;;;;;;-149.70;100.00;75672.16;5029448;28;20057;-62
2023/10/26 06:34:13;;;;;;;72.50;36.78;;;;;;;-149.70;100.00;75670.13;5029068;28;20057;-62
2023/10/26 06:36:40;;;;;;;77.07;36.42;;;;;;;-149.70;100.00;75657.94;5030594;28;20076;-63
2023/10/26 06:39:06;;;;;;;81.32;37.67;;;;;;;-149.70;100.00;75657.94;5031781;28;20117;-62
2023/10/26 06:41:33;;;;;;;73.13;36.58;;;;;;;-149.70;100.00;75647.78;5032467;28;20041;-63
2023/10/26 06:44:00;;;;;;;70.95;35.25;;;;;;;-149.70;100.00;75651.84;5031556;28;20068;-63
2023/10/26 06:46:26;;;;;;;70.68;34.90;;;;;;;-149.70;100.00;75653.88;5032866;28;20042;-63
2023/10/26 06:48:54;;;;;;;65.47;33.45;;;;;;;-149.70;100.00;75672.16;5031723;28;20076;-63
2023/10/26 06:51:22;;;;;;;68.95;33.72;;;;;;;-149.70;100.00;75674.19;5032180;28;20062;-64
2023/10/26 06:53:49;;;;;;;69.32;34.92;;;;;;;-149.70;100.00;75682.31;5020636;28;20073;-64
2023/10/26 06:56:15;;;;;;;68.47;35.08;;;;;;;-149.70;100.00;75682.31;5012515;28;20047;-63
2023/10/26 06:58:43;;;;;;;69.00;35.15;;;;;;;-149.70;100.00;75678.25;5012377;28;20130;-64
2023/10/26 07:01:10;;;;;;;71.32;34.70;;;;;;;-149.70;100.00;75684.38;5012862;28;20097;-64
2023/10/26 07:03:48;;;;;;;61.78;32.58;;;;;;;-149.70;100.00;75674.19;5012554;28;20081;-64
2023/10/26 07:06:15;;;;;;;64.97;33.10;;;;;;;-149.70;100.00;75670.13;5012639;28;20048;-64
2023/10/26 07:08:42;;;;;;;73.35;35.58;;;;;;;-149.70;100.00;75678.25;5011518;28;20050;-64
2023/10/26 07:11:08;;;;;;;70.00;34.78;;;;;;;-149.70;100.00;75672.16;5011607;28;20046;-65
2023/10/26 07:13:35;;;;;;;57.88;32.28;;;;;;;-149.70;100.00;75678.25;5012817;28;20050;-63
2023/10/26 07:16:03;;;;;;;66.60;32.83;;;;;;;-149.70;100.00;75682.31;5011008;28;20053;-64
2023/10/26 07:18:30;;;;;;;73.25;34.13;;;;;;;-149.70;100.00;75680.28;4993942;28;20057;-63
2023/10/26 07:20:57;;;;;;;65.95;32.85;;;;;;;-149.70;100.00;75694.53;5012080;28;20056;-63
2023/10/26 07:23:24;;;;;;;59.55;32.20;;;;;;;-149.70;100.00;75674.19;5009978;28;20057;-63
2023/10/26 07:25:50;;;;;;;57.85;31.80;;;;;;;-149.70;100.00;75690.47;5011105;28;20159;-63
2023/10/26 07:28:17;;;;;;;72.07;33.03;;;;;;;-149.70;100.00;75670.13;5010582;28;20042;-63
2023/10/26 07:30:44;;;;;;;69.28;34.22;;;;;;;-149.70;100.00;75682.31;5010299;28;20105;-63
2023/10/26 07:33:10;;;;;;;58.50;32.65;;;;;;;-149.70;100.00;75694.53;5010729;28;20073;-64
2023/10/26 07:35:40;;;;;;;67.22;33.92;;;;;;;-149.70;100.00;75678.25;5008992;28;20057;-63
2023/10/26 07:38:08;;;;;;;60.67;31.33;;;;;;;-149.70;100.00;75698.59;5009819;28;20054;-64
2023/10/26 07:40:56;;;;;;;60.33;31.95;;;;;;;-149.70;100.00;75698.59;5008982;28;20038;-63
2023/10/26 07:43:23;;;;;;;68.68;33.78;;;;;;;-149.70;100.00;75696.56;5008767;28;20046;-63
2023/10/26 07:45:51;;;;;;;68.50;33.72;;;;;;;-149.70;100.00;75688.44;5005977;28;20540;-63
2023/10/26 07:48:18;;;;;;;68.25;33.67;;;;;;;-149.70;100.00;75674.19;4988468;28;20053;-63
2023/10/26 07:50:45;;;;;;;64.38;32.78;;;;;;;-149.70;100.00;75674.19;5004562;28;20046;-63
2023/10/26 07:53:14;;;;;;;71.95;34.38;;;;;;;-149.70;100.00;75678.25;5008827;28;20041;-63
2023/10/26 07:55:40;;;;;;;68.50;32.05;;;;;;;-149.70;100.00;75680.28;5020478;28;20073;-63
2023/10/26 07:58:07;;;;;;;59.45;31.17;;;;;;;-149.70;100.00;75672.16;5020506;28;20104;-63
2023/10/26 08:00:33;;;;;;;69.53;34.00;;;;;;;-149.70;100.00;75672.16;5019038;28;20069;-63
2023/10/26 08:03:00;;;;;;;65.30;32.63;;;;;;;-149.70;100.00;75674.19;5018159;28;20046;-63
2023/10/26 08:05:28;;;;;;;58.50;32.47;;;;;;;-149.70;100.00;75674.19;5016922;28;20057;-63
2023/10/26 08:07:54;;;;;;;59.53;31.48;;;;;;;-149.70;100.00;75674.19;5016075;28;20042;-62
2023/10/26 08:10:24;;;;;;;65.05;33.25;;;;;;;-149.70;100.00;75680.28;5014284;28;20073;-63
2023/10/26 08:12:52;;;;;;;68.78;33.17;;;;;;;-149.70;100.00;75690.47;5013830;28;20133;-62
2023/10/26 08:15:22;;;;;;;70.32;32.70;;;;;;;-149.70;100.00;75686.41;5013974;28;20499;-62
2023/10/26 08:18:09;;;;;;;64.00;32.65;;;;;;;-149.70;100.00;75690.47;5013433;28;20050;-63
2023/10/26 08:20:35;;;;;;;63.95;32.40;;;;;;;-149.70;100.00;75678.25;5014756;28;20465;-62
2023/10/26 08:23:02;;;;;;;64.00;33.83;;;;;;;-149.70;100.00;75682.31;5012566;28;20042;-61
2023/10/26 08:25:29;;;;;;;62.88;32.15;;;;;;;-149.70;100.00;75688.44;5014553;28;20105;-61
2023/10/26 08:27:56;;;;;;;64.35;32.95;;;;;;;-149.70;100.00;75686.41;5013915;28;20408;-61
2023/10/26 08:30:22;;;;;;;60.17;32.10;;;;;;;-149.70;100.00;75727.06;5015958;28;20073;-63
2023/10/26 08:32:53;;;;;;;69.15;34.05;;;;;;;-149.70;100.00;75714.84;5015537;28;20046;-63
2023/10/26 08:35:20;;;;;;;;;;;;;;;-149.70;100.00;75690.47;5014403;28;20054;-61
2023/10/26 08:37:47;;;;;;;62.78;31.60;;;;;;;-149.70;100.00;75708.75;5014245;28;19928;-61
2023/10/26 08:40:15;;;;;;;57.85;32.42;;;;;;;-149.70;100.00;75702.66;5014515;28;20046;-63
2023/10/26 08:42:44;;;;;;;66.75;33.47;;;;;;;-149.70;100.00;75714.84;5012718;28;20046;-61
2023/10/26 08:45:19;;;;;;;64.22;31.38;;;;;;;-149.70;100.00;75718.91;5011854;28;20050;-61
2023/10/26 08:47:48;;;;;;;66.43;31.92;;;;;;;-149.70;100.00;75710.78;5013349;28;20049;-61
2023/10/26 08:50:19;;;;;;;68.43;33.72;;;;;;;-149.70;100.00;75688.44;5013603;28;20100;-63
2023/10/26 08:52:46;;;;;;;56.33;32.00;;;;;;;-149.70;100.00;75690.47;5011948;28;20054;-61
2023/10/26 08:55:13;;;;;;;57.22;30.67;;;;;;;-149.70;100.00;75690.47;4997326;28;20077;-61
2023/10/26 08:57:51;;;;;;;54.72;30.30;;;;;;;-149.70;100.00;75696.56;4998133;28;20190;-63
2023/10/26 09:00:19;;;;;;;56.28;29.92;;;;;;;-149.70;100.00;75690.47;4998959;28;20053;-62
2023/10/26 09:02:48;;;;;;;57.28;29.30;;;;;;;-149.70;100.00;75690.47;4999386;28;20110;-63
2023/10/26 09:05:16;;;;;;;53.33;29.10;;;;;;;-149.70;100.00;75700.63;5000530;28;20450;-62
2023/10/26 09:07:43;;;;;;;52.05;28.70;;;;;;;-149.70;100.00;75670.13;4998161;28;20081;-63
2023/10/26 09:10:09;;;;;;;48.85;28.63;;;;;;;-149.70;100.00;75688.44;4999391;28;20045;-63
2023/10/26 09:12:36;;;;;;;51.65;28.67;;;;;;;-149.70;100.00;75680.28;5001684;28;20046;-63
2023/10/26 09:15:06;;;;;;;49.95;28.50;;;;;;;-149.70;100.00;75684.38;5002617;28;20117;-63
2023/10/26 09:17:34;;;;;;;45.22;26.13;;;;;;;-149.70;100.00;75670.13;5001196;28;20053;-63
2023/10/26 09:20:20;;;;;;;47.00;26.33;;;;;;;-149.70;100.00;75696.56;4999937;28;20114;-62
2023/10/26 09:22:47;;;;;;;49.67;27.83;;;;;;;-149.70;100.00;75696.56;4996452;28;20555;-62
2023/10/26 09:25:14;;;;;;;51.33;28.55;;;;;;;-149.70;100.00;75718.91;4997083;28;20052;-62
2023/10/26 09:27:42;;;;;;;51.60;28.20;;;;;;;-149.70;100.00;75694.53;4991745;28;20045;-62
2023/10/26 09:30:26;;;;;;;51.85;28.63;;;;;;;-149.70;100.00;75708.75;4992815;28;20069;-62
2023/10/26 09:32:52;;;;;;;47.58;26.13;;;;;;;-149.70;100.00;75698.59;4993094;28;20054;-62
2023/10/26 09:35:31;;;;;;;46.60;27.58;;;;;;;-149.70;100.00;75702.66;4991974;28;20046;-62
2023/10/26 09:37:58;;;;;;;54.33;29.88;;;;;;;-149.70;100.00;75696.56;4991979;28;20051;-61
2023/10/26 09:40:26;;;;;;;54.30;29.13;;;;;;;-149.70;100.00;75686.41;4991721;28;20042;-61
2023/10/26 09:42:57;;;;;;;44.42;27.50;;;;;;;-149.70;100.00;75706.72;4992345;28;20125;-61
2023/10/26 09:45:25;;;;;;;47.70;28.43;;;;;;;-149.70;100.00;75716.88;5001228;28;20129;-61
2023/10/26 09:47:52;;;;;;;54.97;30.17;;;;;;;-149.70;100.00;75700.63;4996058;28;20308;-61
2023/10/26 09:50:18;;;;;;;43.85;27.27;;;;;;;-149.70;100.00;75674.19;5012271;28;20124;-62
2023/10/26 09:52:45;;;;;;;46.17;27.77;;;;;;;-149.70;100.00;75716.88;5010252;28;20046;-62
2023/10/26 09:55:14;;;;;;;54.03;29.38;;;;;;;-149.70;100.00;75725.03;4993091;28;20104;-62
2023/10/26 09:57:52;;;;;;;52.85;30.02;;;;;;;-149.70;100.00;75714.84;4993695;28;20050;-61
2023/10/26 10:00:29;;;;;;;46.25;27.77;;;;;;;-149.70;100.00;75706.72;4994280;28;20039;-62
2023/10/26 10:03:12;;;;;;;52.05;28.58;;;;;;;-149.70;100.00;75714.84;4995064;28;20433;-62
2023/10/26 10:05:41;;;;;;;41.10;25.15;;;;;;;-149.70;100.00;75694.53;4996179;28;20050;-62
2023/10/26 10:08:08;;;;;;;47.65;26.98;;;;;;;-149.70;100.00;75708.75;5000120;28;20042;-62
2023/10/26 10:10:35;;;;;;;41.47;24.92;;;;;;;-149.70;100.00;75720.94;5002317;28;20050;-63
2023/10/26 10:13:02;;;;;;;51.83;28.60;;;;;;;-149.70;100.00;75708.75;5001252;28;20134;-63
2023/10/26 10:15:33;;;;;;;48.25;26.90;;;;;;;-149.70;100.00;75716.88;5001673;28;20042;-62
2023/10/26 10:18:09;;;;;;;49.20;27.98;;;;;;;-149.70;100.00;75702.66;5002818;28;20486;-64
2023/10/26 10:20:38;;;;;;;45.70;27.48;;;;;;;-149.70;100.00;75698.59;5001950;28;20046;-63
2023/10/26 10:23:04;;;;;;;49.63;28.50;;;;;;;-149.70;100.00;75698.59;5002220;28;20046;-63
2023/10/26 10:25:49;;;;;;;42.72;26.05;;;;;;;-149.70;100.00;75682.31;5003191;28;20057;-62
2023/10/26 10:28:19;;;;;;;42.63;24.80;;;;;;;-149.70;100.00;75657.94;5002883;28;20081;-63
2023/10/26 10:30:50;;;;;;;48.58;25.02;;;;;;;-149.70;100.00;75651.84;5002837;28;20461;-63
2023/10/26 10:33:22;;;;;;;41.88;24.77;;;;;;;-149.70;100.00;75645.72;5003046;28;20514;-64
2023/10/26 10:36:03;;;;;;;32.67;21.60;;;;;;;-149.70;100.00;75647.78;5001491;28;20590;-63
2023/10/26 10:38:32;;;;;;;35.65;21.63;;;;;;;-149.70;100.00;75645.72;5003003;28;20042;-63
2023/10/26 10:40:58;;;;;;;34.17;20.40;;;;;;;-149.70;100.00;75674.19;5002978;28;20054;-63
2023/10/26 10:43:44;;;;;;;29.55;19.08;;;;;;;-149.70;100.00;75690.47;5001906;28;20061;-63
2023/10/26 10:46:16;;;;;;;35.40;20.90;;;;;;;-149.70;100.00;75708.75;5000115;28;20042;-63
2023/10/26 10:48:57;;;;;;;;;;;;;;;-149.70;100.00;75694.53;5022143;28;20049;-63
2023/10/26 10:51:32;;;;;;;30.85;20.30;;;;;;;-149.70;100.00;75686.41;5022484;28;19928;-63
2023/10/26 10:54:01;;;;;;;37.78;22.52;;;;;;;-149.70;100.00;75666.06;4993036;28;20114;-62
2023/10/26 10:56:44;;;;;;;43.22;20.42;;;;;;;-149.70;100.00;75686.41;5003706;28;20110;-65
2023/10/26 10:59:21;;;;;;;30.23;19.48;;;;;;;-149.70;100.00;75702.66;5004403;28;20093;-63
2023/10/26 11:01:49;;;;;;;36.90;21.08;;;;;;;-149.70;100.00;75684.38;5003324;28;20514;-63